DLH3C GCHI-GCGM

Flight info

Callsign DLH3C
Flight time 0h 16m
Altitude 16000
Route TFS
Aircraft AT76/M-SDFGIRY/S

Departure

Time 2026-04-12 13:32
Airport El Hierro Airport (GCHI)

Arrival

Time 2026-04-12 13:49
Airport La Gomera Airport (GCGM)
Time Latitude Longitude Altitude Speed Heading
2026-04-12 13:20 27.81442 -17.88589 101 ft 0 kts 153°
2026-04-12 13:27 27.81424 -17.88578 101 ft 9 kts 153°
2026-04-12 13:27 27.81343 -17.88530 101 ft 16 kts 152°
2026-04-12 13:27 27.81388 -17.88557 101 ft 4 kts 152°
2026-04-12 13:27 27.81404 -17.88568 101 ft 0 kts 151°
2026-04-12 13:29 27.81383 -17.88559 101 ft 11 kts 167°
2026-04-12 13:30 27.81352 -17.88585 101 ft 0 kts 239°
2026-04-12 13:30 27.81339 -17.88614 102 ft 4 kts 262°
2026-04-12 13:30 27.81279 -17.88592 101 ft 23 kts 146°
2026-04-12 13:30 27.81129 -17.88493 102 ft 26 kts 150°
2026-04-12 13:31 27.81016 -17.88452 102 ft 15 kts 176°
2026-04-12 13:31 27.81004 -17.88433 101 ft 1 kts 69°
2026-04-12 13:31 27.81050 -17.88446 103 ft 28 kts 334°
2026-04-12 13:31 27.81303 -17.88589 103 ft 37 kts 339°
2026-04-12 13:32 27.81686 -17.88842 111 ft 98 kts 333°
2026-04-12 13:32 27.82313 -17.89264 636 ft 112 kts 356°
2026-04-12 13:32 27.83175 -17.89014 917 ft 152 kts 37°
2026-04-12 13:32 27.83740 -17.88025 1593 ft 159 kts 89°
2026-04-12 13:33 27.82850 -17.87385 2593 ft 176 kts 165°
2026-04-12 13:33 27.81800 -17.86636 2703 ft 189 kts 124°
2026-04-12 13:33 27.80966 -17.85443 3015 ft 207 kts 116°
2026-04-12 13:33 27.80172 -17.83918 2948 ft 237 kts 112°
2026-04-12 13:34 27.79880 -17.82287 3131 ft 211 kts 75°
2026-04-12 13:34 27.80158 -17.80679 4025 ft 195 kts 74°
2026-04-12 13:34 27.80469 -17.79291 5331 ft 177 kts 69°
2026-04-12 13:34 27.80881 -17.77906 5851 ft 200 kts 64°
2026-04-12 13:35 27.81578 -17.76481 6396 ft 208 kts 52°
2026-04-12 13:35 27.82615 -17.75418 7293 ft 203 kts 27°
2026-04-12 13:35 27.83824 -17.74705 7675 ft 205 kts 49°
2026-04-12 13:35 27.84361 -17.73233 8582 ft 208 kts 72°
2026-04-12 13:36 27.84691 -17.71603 9068 ft 217 kts 67°
2026-04-12 13:36 27.85076 -17.69884 9644 ft 226 kts 74°
2026-04-12 13:36 27.85462 -17.68135 10181 ft 237 kts 62°
2026-04-12 13:36 27.86233 -17.66546 10304 ft 228 kts 59°
2026-04-12 13:37 27.86441 -17.64814 10834 ft 227 kts 81°
2026-04-12 13:37 27.86637 -17.62990 11194 ft 241 kts 72°
2026-04-12 13:37 27.87002 -17.61147 11802 ft 240 kts 71°
2026-04-12 13:37 27.87472 -17.59380 12253 ft 242 kts 71°
2026-04-12 13:38 27.87542 -17.57250 11664 ft 273 kts 91°
2026-04-12 13:38 27.87505 -17.55262 12928 ft 240 kts 80°
2026-04-12 13:38 27.87694 -17.53350 13517 ft 231 kts 70°
2026-04-12 13:38 27.88013 -17.51595 14397 ft 233 kts 73°
2026-04-12 13:39 27.88301 -17.49728 14753 ft 247 kts 75°
2026-04-12 13:39 27.88424 -17.47758 15176 ft 259 kts 79°
2026-04-12 13:39 27.88666 -17.45726 15573 ft 258 kts 75°
2026-04-12 13:39 27.88921 -17.43728 15890 ft 266 kts 75°
2026-04-12 13:40 27.89243 -17.41597 16045 ft 269 kts 73°
2026-04-12 13:40 27.89606 -17.39563 16506 ft 262 kts 69°
2026-04-12 13:40 27.90072 -17.37514 16385 ft 279 kts 71°
2026-04-12 13:40 27.90270 -17.35244 16299 ft 295 kts 80°
2026-04-12 13:41 27.90324 -17.32888 16274 ft 304 kts 85°
2026-04-12 13:41 27.90134 -17.30567 16112 ft 289 kts 91°
2026-04-12 13:41 27.89892 -17.28306 15909 ft 283 kts 90°
2026-04-12 13:41 27.89820 -17.26142 15837 ft 271 kts 81°
2026-04-12 13:42 27.90046 -17.24083 15689 ft 262 kts 74°
2026-04-12 13:42 27.90171 -17.22006 15122 ft 275 kts 84°
2026-04-12 13:42 27.90166 -17.19851 15110 ft 264 kts 84°
2026-04-12 13:42 27.90168 -17.17777 14923 ft 264 kts 82°
2026-04-12 13:43 27.90366 -17.15754 14692 ft 261 kts 71°
2026-04-12 13:43 27.90908 -17.13839 14440 ft 255 kts 65°
2026-04-12 13:43 27.91503 -17.11933 14130 ft 258 kts 64°
2026-04-12 13:43 27.92176 -17.10063 13929 ft 254 kts 61°
2026-04-12 13:44 27.92965 -17.08304 13795 ft 248 kts 55°
2026-04-12 13:44 27.93916 -17.06692 13555 ft 246 kts 47°
2026-04-12 13:44 27.95069 -17.05268 13258 ft 244 kts 38°
2026-04-12 13:44 27.96250 -17.04032 13082 ft 233 kts 35°
2026-04-12 13:45 27.97729 -17.03289 12719 ft 219 kts 14°
2026-04-12 13:45 27.99138 -17.02811 12879 ft 213 kts 14°
2026-04-12 13:45 28.00652 -17.02389 11900 ft 237 kts
2026-04-12 13:45 28.02328 -17.03074 10649 ft 267 kts 321°
2026-04-12 13:46 28.03314 -17.04703 9820 ft 255 kts 304°
2026-04-12 13:46 28.03948 -17.06700 8137 ft 287 kts 277°
2026-04-12 13:46 28.03970 -17.08889 5494 ft 273 kts 272°
2026-04-12 13:46 28.03760 -17.11007 2585 ft 275 kts 264°
2026-04-12 13:47 28.03416 -17.12777 3419 ft 172 kts 249°
2026-04-12 13:47 28.02883 -17.13877 2354 ft 157 kts 245°
2026-04-12 13:47 28.03121 -17.15216 1029 ft 170 kts 260°
2026-04-12 13:47 28.02776 -17.16362 1086 ft 134 kts 260°
2026-04-12 13:48 28.02415 -17.17541 785 ft 177 kts 245°
2026-04-12 13:48 28.02413 -17.18825 1382 ft 150 kts 297°
2026-04-12 13:48 28.02873 -17.19790 1299 ft 130 kts 309°
2026-04-12 13:48 28.03048 -17.20799 728 ft 133 kts 266°
2026-04-12 13:49 28.03000 -17.21190 717 ft 5 kts 257°
2026-04-12 13:49 28.03020 -17.21123 717 ft 11 kts 236°
2026-04-12 13:49 28.03082 -17.21108 719 ft 12 kts 153°
2026-04-12 13:49 28.03122 -17.21142 717 ft 0 kts 139°